Time;durP1;ratioP1;P1;durP2;ratioP2;P2;SDS_P1;SDS_P2;PMS_P1;PMS_P2;Temp;Humidity;BMP_temperature;BMP_pressure;BME280_temperature;BME280_humidity;BME280_pressure;Samples;Min_cycle;Max_cycle;Signal;HPM_P1;HPM_P2
2021/01/12 00:00:51;;;;;;;45.67;23.10;;;;;;;;;;5084106;28;20123;-57
2021/01/12 00:03:17;;;;;;;42.88;21.63;;;;;;;;;;5084634;28;20428;-56
2021/01/12 00:05:44;;;;;;;42.22;21.17;;;;;;;;;;5084136;28;20028;-57
2021/01/12 00:08:10;;;;;;;40.92;19.95;;;;;;;;;;5084956;28;20410;-56
2021/01/12 00:10:36;;;;;;;36.47;18.30;;;;;;;;;;5085044;28;20025;-56
2021/01/12 00:13:02;;;;;;;34.67;19.52;;;;;;;;;;5083403;28;20656;-57
2021/01/12 00:15:29;;;;;;;36.80;18.98;;;;;;;;;;5084985;28;20039;-56
2021/01/12 00:17:55;;;;;;;38.67;18.20;;;;;;;;;;5085638;28;20031;-56
2021/01/12 00:20:21;;;;;;;34.67;18.52;;;;;;;;;;5083374;28;20115;-55
2021/01/12 00:22:47;;;;;;;38.70;19.02;;;;;;;;;;5083462;28;20455;-56
2021/01/12 00:25:14;;;;;;;37.03;18.45;;;;;;;;;;5083762;28;20305;-56
2021/01/12 00:27:40;;;;;;;36.95;18.02;;;;;;;;;;5085064;28;20375;-56
2021/01/12 00:30:06;;;;;;;33.80;17.65;;;;;;;;;;5078511;28;20038;-56
2021/01/12 00:32:33;;;;;;;34.42;17.30;;;;;;;;;;5083601;28;20097;-56
2021/01/12 00:34:59;;;;;;;31.23;17.17;;;;;;;;;;5084418;28;20514;-57
2021/01/12 00:37:27;;;;;;;31.25;16.45;;;;;;;;;;5080698;28;20027;-57
2021/01/12 00:39:54;;;;;;;29.88;15.43;;;;;;;;;;5084089;28;20032;-57
2021/01/12 00:42:21;;;;;;;30.95;15.90;;;;;;;;;;5084726;28;20027;-57
2021/01/12 00:44:47;;;;;;;30.90;16.20;;;;;;;;;;5085102;28;20039;-57
2021/01/12 00:47:13;;;;;;;33.90;17.13;;;;;;;;;;5084853;28;20403;-57
2021/01/12 00:49:39;;;;;;;33.47;17.60;;;;;;;;;;5085270;28;20050;-57
2021/01/12 00:52:09;;;;;;;35.10;17.83;;;;;;;;;;5084542;28;20016;-57
2021/01/12 00:54:35;;;;;;;34.38;17.52;;;;;;;;;;5084545;28;20085;-57
2021/01/12 00:57:01;;;;;;;35.67;18.02;;;;;;;;;;5083649;28;20027;-57
2021/01/12 00:59:27;;;;;;;35.25;18.25;;;;;;;;;;5085185;28;20411;-57
2021/01/12 01:01:57;;;;;;;32.65;17.52;;;;;;;;;;5084744;28;20058;-57
2021/01/12 01:04:25;;;;;;;36.20;18.40;;;;;;;;;;5082598;28;20035;-57
2021/01/12 01:06:51;;;;;;;39.13;18.63;;;;;;;;;;5084025;28;20026;-57
2021/01/12 01:09:17;;;;;;;35.60;18.63;;;;;;;;;;5084689;28;20020;-57
2021/01/12 01:11:45;;;;;;;39.17;18.05;;;;;;;;;;5084563;28;20566;-57
2021/01/12 01:14:11;;;;;;;36.30;18.15;;;;;;;;;;5084266;28;20530;-57
2021/01/12 01:16:38;;;;;;;36.75;17.13;;;;;;;;;;5084680;28;20041;-57
2021/01/12 01:19:05;;;;;;;39.13;19.75;;;;;;;;;;5084159;28;20032;-56
2021/01/12 01:21:33;;;;;;;43.92;21.83;;;;;;;;;;5084524;28;20024;-57
2021/01/12 01:23:59;;;;;;;48.90;22.92;;;;;;;;;;5084443;28;20035;-57
2021/01/12 01:26:25;;;;;;;49.88;23.33;;;;;;;;;;5084873;28;20052;-57
2021/01/12 01:28:51;;;;;;;46.55;22.83;;;;;;;;;;5084393;28;20449;-57
2021/01/12 01:31:17;;;;;;;47.53;23.10;;;;;;;;;;5084319;28;20052;-57
2021/01/12 01:33:45;;;;;;;44.47;21.58;;;;;;;;;;5084445;28;20075;-57
2021/01/12 01:36:11;;;;;;;44.50;21.15;;;;;;;;;;5083638;28;20123;-57
2021/01/12 01:38:38;;;;;;;48.80;21.30;;;;;;;;;;5084472;28;20447;-57
2021/01/12 01:41:07;;;;;;;47.22;23.52;;;;;;;;;;5084026;28;20024;-57
2021/01/12 01:43:33;;;;;;;46.53;21.40;;;;;;;;;;5084014;28;20048;-57
2021/01/12 01:46:00;;;;;;;41.28;20.40;;;;;;;;;;5082917;28;20099;-57
2021/01/12 01:48:27;;;;;;;38.70;18.90;;;;;;;;;;5083968;28;20107;-57
2021/01/12 01:50:53;;;;;;;37.72;19.30;;;;;;;;;;5083991;28;20656;-57
2021/01/12 01:53:19;;;;;;;38.45;19.00;;;;;;;;;;5082738;28;20482;-57
2021/01/12 01:55:51;;;;;;;39.10;19.40;;;;;;;;;;5084175;28;20028;-57
2021/01/12 01:58:17;;;;;;;40.22;20.05;;;;;;;;;;5083647;28;20054;-57
2021/01/12 02:00:44;;;;;;;37.45;19.75;;;;;;;;;;5083883;28;20028;-57
2021/01/12 02:03:17;;;;;;;36.75;18.92;;;;;;;;;;5082702;28;20513;-56
2021/01/12 02:05:47;;;;;;;38.75;20.02;;;;;;;;;;5083965;28;20021;-57
2021/01/12 02:08:22;;;;;;;36.33;18.45;;;;;;;;;;5083881;28;20024;-57
2021/01/12 02:10:49;;;;;;;39.30;20.02;;;;;;;;;;5083996;28;20055;-57
2021/01/12 02:13:18;;;;;;;38.95;18.98;;;;;;;;;;5083803;28;20107;-57
2021/01/12 02:15:45;;;;;;;38.78;17.58;;;;;;;;;;5083917;28;20024;-57
2021/01/12 02:18:13;;;;;;;35.38;18.65;;;;;;;;;;5083712;28;20036;-57
2021/01/12 02:20:41;;;;;;;37.38;19.60;;;;;;;;;;5084640;28;20513;-56
2021/01/12 02:23:13;;;;;;;40.08;18.02;;;;;;;;;;5083277;28;20077;-56
2021/01/12 02:25:40;;;;;;;38.10;19.60;;;;;;;;;;5083792;28;20025;-57
2021/01/12 02:28:07;;;;;;;39.88;19.90;;;;;;;;;;5084114;28;20424;-56
2021/01/12 02:30:34;;;;;;;36.33;18.60;;;;;;;;;;5083917;28;20024;-57
2021/01/12 02:33:01;;;;;;;38.45;19.15;;;;;;;;;;5083294;28;20024;-57
2021/01/12 02:35:27;;;;;;;37.60;19.30;;;;;;;;;;5083650;28;20027;-57
2021/01/12 02:37:55;;;;;;;39.13;18.60;;;;;;;;;;5083764;28;20054;-56
2021/01/12 02:40:22;;;;;;;39.25;19.50;;;;;;;;;;5083440;28;20063;-57
2021/01/12 02:42:48;;;;;;;36.92;18.80;;;;;;;;;;5083475;28;20036;-57
2021/01/12 02:45:14;;;;;;;37.70;20.85;;;;;;;;;;5083583;28;20062;-57
2021/01/12 02:47:40;;;;;;;37.97;19.38;;;;;;;;;;5087151;28;20115;-57
2021/01/12 02:50:06;;;;;;;36.92;18.48;;;;;;;;;;5087779;28;20091;-57
2021/01/12 02:52:34;;;;;;;37.38;18.92;;;;;;;;;;5086547;28;20081;-56
2021/01/12 02:55:00;;;;;;;39.58;19.00;;;;;;;;;;5087243;28;20034;-57
2021/01/12 02:57:26;;;;;;;35.65;19.13;;;;;;;;;;5086585;28;20032;-57
2021/01/12 02:59:52;;;;;;;37.20;19.45;;;;;;;;;;5087179;28;20409;-57
2021/01/12 03:02:18;;;;;;;37.65;19.50;;;;;;;;;;5085766;28;20032;-57
2021/01/12 03:04:44;;;;;;;38.70;18.20;;;;;;;;;;5086734;28;20070;-57
2021/01/12 03:07:10;;;;;;;32.60;17.20;;;;;;;;;;5086841;28;20032;-57
2021/01/12 03:09:36;;;;;;;36.50;18.55;;;;;;;;;;5087620;28;20020;-56
2021/01/12 03:12:02;;;;;;;36.85;17.98;;;;;;;;;;5086561;28;20058;-56
2021/01/12 03:14:29;;;;;;;36.28;18.95;;;;;;;;;;5087171;28;20043;-57
2021/01/12 03:16:55;;;;;;;37.80;19.20;;;;;;;;;;5086688;28;20494;-57
2021/01/12 03:19:21;;;;;;;41.55;20.02;;;;;;;;;;5086584;28;20089;-57
2021/01/12 03:21:47;;;;;;;36.13;18.50;;;;;;;;;;5086717;28;20039;-57
2021/01/12 03:24:13;;;;;;;36.33;18.02;;;;;;;;;;5086227;28;20498;-57
2021/01/12 03:26:40;;;;;;;36.53;19.38;;;;;;;;;;5086368;28;20020;-57
2021/01/12 03:29:06;;;;;;;37.08;19.27;;;;;;;;;;5087059;28;20017;-57
2021/01/12 03:31:32;;;;;;;37.88;18.33;;;;;;;;;;5086088;28;20193;-56
2021/01/12 03:33:58;;;;;;;36.95;18.15;;;;;;;;;;5086489;28;20563;-56
2021/01/12 03:36:24;;;;;;;35.83;18.33;;;;;;;;;;5086261;28;20405;-57
2021/01/12 03:38:50;;;;;;;37.78;19.27;;;;;;;;;;5086413;28;20319;-57
2021/01/12 03:41:16;;;;;;;37.72;18.65;;;;;;;;;;5085921;28;20101;-57
2021/01/12 03:43:42;;;;;;;35.75;18.63;;;;;;;;;;5086317;28;20024;-57
2021/01/12 03:46:08;;;;;;;32.92;17.30;;;;;;;;;;5085677;28;20047;-57
2021/01/12 03:48:34;;;;;;;39.17;18.85;;;;;;;;;;5086654;28;20028;-56
2021/01/12 03:51:01;;;;;;;34.83;18.52;;;;;;;;;;5084803;28;20024;-56
2021/01/12 03:53:27;;;;;;;35.67;17.90;;;;;;;;;;5085452;28;20021;-57
2021/01/12 03:55:53;;;;;;;40.15;19.30;;;;;;;;;;5085766;28;20024;-57
2021/01/12 03:58:19;;;;;;;33.65;18.23;;;;;;;;;;5084928;28;20051;-57
2021/01/12 04:00:45;;;;;;;38.78;19.13;;;;;;;;;;5085261;28;20036;-57
2021/01/12 04:03:13;;;;;;;37.75;18.90;;;;;;;;;;5085099;28;20085;-57
2021/01/12 04:05:39;;;;;;;38.47;18.27;;;;;;;;;;5086345;28;20032;-57
2021/01/12 04:08:07;;;;;;;38.13;19.42;;;;;;;;;;5084589;28;20058;-57
2021/01/12 04:10:33;;;;;;;38.92;18.88;;;;;;;;;;5085710;28;20028;-57
2021/01/12 04:13:00;;;;;;;38.00;18.98;;;;;;;;;;5085708;28;20064;-56
2021/01/12 04:15:27;;;;;;;39.97;19.70;;;;;;;;;;5085821;28;20028;-57
2021/01/12 04:17:53;;;;;;;39.00;19.92;;;;;;;;;;5085287;28;20024;-56
2021/01/12 04:20:19;;;;;;;39.45;18.98;;;;;;;;;;5084963;28;20109;-56
2021/01/12 04:22:45;;;;;;;41.88;20.05;;;;;;;;;;5082764;28;20508;-57
2021/01/12 04:25:11;;;;;;;35.70;17.77;;;;;;;;;;5085308;28;20028;-57
2021/01/12 04:27:37;;;;;;;41.15;20.08;;;;;;;;;;5085921;28;20028;-56
2021/01/12 04:30:04;;;;;;;40.42;18.77;;;;;;;;;;5085323;28;20028;-56
2021/01/12 04:32:30;;;;;;;37.75;19.08;;;;;;;;;;5085243;28;20404;-57
2021/01/12 04:34:57;;;;;;;35.45;18.38;;;;;;;;;;5085255;28;20028;-57
2021/01/12 04:37:23;;;;;;;39.08;19.20;;;;;;;;;;5084966;28;20028;-57
2021/01/12 04:39:49;;;;;;;36.55;17.92;;;;;;;;;;5085243;28;20529;-56
2021/01/12 04:42:15;;;;;;;36.13;18.88;;;;;;;;;;5084736;28;20078;-57
2021/01/12 04:44:41;;;;;;;43.55;20.85;;;;;;;;;;5085101;28;20486;-57
2021/01/12 04:47:07;;;;;;;37.92;19.13;;;;;;;;;;5085464;28;20020;-57
2021/01/12 04:49:34;;;;;;;38.03;18.95;;;;;;;;;;5086891;28;20062;-56
2021/01/12 04:52:00;;;;;;;36.42;18.67;;;;;;;;;;5086542;28;20043;-56
2021/01/12 04:54:31;;;;;;;37.80;19.90;;;;;;;;;;5085772;28;20028;-56
2021/01/12 04:56:57;;;;;;;41.38;19.65;;;;;;;;;;5086535;28;20024;-56
2021/01/12 04:59:30;;;;;;;42.22;20.70;;;;;;;;;;5086150;28;20497;-57
2021/01/12 05:01:56;;;;;;;50.47;23.05;;;;;;;;;;5084010;28;20603;-57
2021/01/12 05:04:23;;;;;;;48.90;22.75;;;;;;;;;;5086004;28;20481;-57
2021/01/12 05:06:49;;;;;;;42.75;19.40;;;;;;;;;;5086470;28;20028;-57
2021/01/12 05:09:21;;;;;;;49.35;21.30;;;;;;;;;;5085386;28;20028;-57
2021/01/12 05:11:48;;;;;;;45.97;20.75;;;;;;;;;;5085467;28;20024;-56
2021/01/12 05:14:15;;;;;;;41.15;19.85;;;;;;;;;;5086253;28;20111;-57
2021/01/12 05:16:48;;;;;;;44.92;21.10;;;;;;;;;;5086147;28;20119;-57
2021/01/12 05:19:18;;;;;;;35.45;18.20;;;;;;;;;;5086059;28;20117;-57
2021/01/12 05:21:45;;;;;;;40.15;20.20;;;;;;;;;;5086028;28;20024;-57
2021/01/12 05:24:15;;;;;;;38.05;20.45;;;;;;;;;;5085894;28;20039;-57
2021/01/12 05:26:42;;;;;;;43.50;20.80;;;;;;;;;;5086172;28;20062;-57
2021/01/12 05:29:08;;;;;;;40.55;20.42;;;;;;;;;;5086633;28;20024;-57
2021/01/12 05:31:35;;;;;;;36.70;18.90;;;;;;;;;;5085591;28;20020;-57
2021/01/12 05:34:08;;;;;;;43.15;20.00;;;;;;;;;;5084947;28;20107;-57
2021/01/12 05:36:35;;;;;;;38.85;19.30;;;;;;;;;;5085009;28;20020;-56
2021/01/12 05:39:02;;;;;;;40.00;19.23;;;;;;;;;;5085394;28;20490;-56
2021/01/12 05:41:29;;;;;;;39.38;19.98;;;;;;;;;;5085666;28;20118;-56
2021/01/12 05:43:56;;;;;;;39.20;19.85;;;;;;;;;;5079273;28;20419;-56
2021/01/12 05:46:22;;;;;;;36.65;18.65;;;;;;;;;;5083392;28;20751;-56
2021/01/12 05:48:49;;;;;;;39.80;18.90;;;;;;;;;;5083276;28;20251;-56
2021/01/12 05:51:16;;;;;;;37.53;19.17;;;;;;;;;;5083309;28;20100;-56
2021/01/12 05:54:02;;;;;;;39.05;19.58;;;;;;;;;;5083431;28;20020;-55
2021/01/12 05:56:29;;;;;;;41.85;20.15;;;;;;;;;;5083997;28;20031;-55
2021/01/12 05:58:57;;;;;;;36.55;19.38;;;;;;;;;;5083562;28;20555;-56
2021/01/12 06:01:42;;;;;;;42.05;21.20;;;;;;;;;;5082677;28;20035;-55
2021/01/12 06:04:10;;;;;;;35.60;18.67;;;;;;;;;;5084309;28;20193;-55
2021/01/12 06:06:40;;;;;;;37.45;18.73;;;;;;;;;;5084601;28;20444;-56
2021/01/12 06:09:09;;;;;;;39.45;19.20;;;;;;;;;;5084087;28;20077;-56
2021/01/12 06:11:36;;;;;;;41.88;21.83;;;;;;;;;;5083984;28;20056;-55
2021/01/12 06:14:09;;;;;;;37.97;19.63;;;;;;;;;;5084005;28;20265;-56
2021/01/12 06:16:36;;;;;;;38.72;20.08;;;;;;;;;;5083946;28;20063;-55
2021/01/12 06:19:06;;;;;;;38.97;20.27;;;;;;;;;;5083051;28;20073;-55
2021/01/12 06:21:36;;;;;;;38.60;20.60;;;;;;;;;;5084846;28;20577;-56
2021/01/12 06:24:10;;;;;;;37.20;19.35;;;;;;;;;;5087721;28;20020;-55
2021/01/12 06:26:37;;;;;;;39.42;19.23;;;;;;;;;;5088669;28;20390;-56
2021/01/12 06:29:05;;;;;;;37.67;19.13;;;;;;;;;;5087621;28;20030;-56
2021/01/12 06:31:32;;;;;;;37.28;18.67;;;;;;;;;;5087479;28;20498;-55
2021/01/12 06:33:59;;;;;;;35.75;18.63;;;;;;;;;;5087593;28;20109;-56
2021/01/12 06:36:26;;;;;;;37.47;18.90;;;;;;;;;;5087485;28;20051;-56
2021/01/12 06:38:52;;;;;;;35.97;18.90;;;;;;;;;;5087465;28;20024;-55
2021/01/12 06:41:22;;;;;;;39.05;19.00;;;;;;;;;;5087450;28;20051;-55
2021/01/12 06:43:49;;;;;;;38.17;20.17;;;;;;;;;;5087483;28;20482;-56
2021/01/12 06:46:16;;;;;;;38.97;18.85;;;;;;;;;;5086723;28;20032;-56
2021/01/12 06:48:43;;;;;;;39.88;19.05;;;;;;;;;;5087520;28;20355;-56
2021/01/12 06:51:09;;;;;;;36.38;18.42;;;;;;;;;;5086634;28;20027;-57
2021/01/12 06:53:35;;;;;;;36.97;18.00;;;;;;;;;;5086993;28;20020;-57
2021/01/12 06:56:05;;;;;;;35.92;18.25;;;;;;;;;;5087451;28;20031;-57
2021/01/12 06:58:32;;;;;;;40.47;19.90;;;;;;;;;;5087109;28;20024;-55
2021/01/12 07:01:01;;;;;;;37.35;20.25;;;;;;;;;;5084438;28;20116;-56
2021/01/12 07:03:32;;;;;;;37.00;19.92;;;;;;;;;;5086916;28;20028;-56
2021/01/12 07:06:01;;;;;;;41.55;19.92;;;;;;;;;;5087106;28;20108;-56
2021/01/12 07:08:28;;;;;;;39.55;19.38;;;;;;;;;;5087247;28;20016;-57
2021/01/12 07:10:55;;;;;;;41.45;20.00;;;;;;;;;;5086903;28;20016;-56
2021/01/12 07:13:22;;;;;;;41.97;19.50;;;;;;;;;;5086673;28;20392;-56
2021/01/12 07:15:49;;;;;;;38.58;20.23;;;;;;;;;;5086671;28;20382;-57
2021/01/12 07:18:21;;;;;;;39.58;20.05;;;;;;;;;;5086965;28;20020;-57
2021/01/12 07:20:48;;;;;;;40.65;19.50;;;;;;;;;;5086930;28;20024;-56
2021/01/12 07:23:14;;;;;;;41.40;19.65;;;;;;;;;;5086407;28;20085;-57
2021/01/12 07:25:41;;;;;;;46.75;22.30;;;;;;;;;;5087279;28;20031;-56
2021/01/12 07:28:10;;;;;;;46.28;21.13;;;;;;;;;;5087036;28;20035;-57
2021/01/12 07:30:39;;;;;;;41.47;20.58;;;;;;;;;;5086881;28;20024;-57
2021/01/12 07:33:06;;;;;;;41.58;20.63;;;;;;;;;;5083558;28;20432;-56
2021/01/12 07:35:32;;;;;;;36.35;18.92;;;;;;;;;;5086643;28;20023;-56
2021/01/12 07:37:58;;;;;;;39.33;19.33;;;;;;;;;;5085358;28;20401;-57
2021/01/12 07:40:25;;;;;;;37.67;19.48;;;;;;;;;;5085970;28;20107;-57
2021/01/12 07:42:55;;;;;;;40.75;20.50;;;;;;;;;;5085992;28;20040;-57
2021/01/12 07:45:23;;;;;;;42.08;20.38;;;;;;;;;;5085711;28;20028;-57
2021/01/12 07:47:50;;;;;;;40.13;19.95;;;;;;;;;;5086266;28;20032;-57
2021/01/12 07:50:16;;;;;;;44.67;22.02;;;;;;;;;;5083407;28;20027;-57
2021/01/12 07:52:42;;;;;;;38.58;20.63;;;;;;;;;;5086716;28;20111;-57
2021/01/12 07:55:09;;;;;;;38.90;20.13;;;;;;;;;;5085235;28;20032;-57
2021/01/12 07:57:35;;;;;;;42.60;21.08;;;;;;;;;;5086728;28;20046;-57
2021/01/12 08:00:03;;;;;;;41.63;18.98;;;;;;;;;;5067967;28;20127;-57
2021/01/12 08:02:29;;;;;;;42.08;20.63;;;;;;;;;;5087760;28;20029;-57
2021/01/12 08:04:56;;;;;;;39.47;19.58;;;;;;;;;;5078802;28;20024;-56
2021/01/12 08:07:23;;;;;;;34.65;17.38;;;;;;;;;;5087189;28;20028;-57
2021/01/12 08:09:53;;;;;;;34.95;17.50;;;;;;;;;;5086403;28;20444;-57
2021/01/12 08:14:55;;;;;;;36.70;18.95;;;;;;;;;;5316446;22;20602;-58
2021/01/12 08:17:28;;;;;;;42.95;20.02;;;;;;;;;;5125115;27;20769;-58
2021/01/12 08:19:55;;;;;;;40.83;20.60;;;;;;;;;;5127573;27;20026;-58
2021/01/12 08:22:24;;;;;;;40.08;19.98;;;;;;;;;;5127890;27;20403;-58
2021/01/12 08:24:50;;;;;;;35.40;18.55;;;;;;;;;;5127545;27;20411;-58
2021/01/12 08:27:20;;;;;;;40.30;19.33;;;;;;;;;;5123580;27;20470;-58
2021/01/12 08:29:47;;;;;;;38.65;20.92;;;;;;;;;;5126607;27;20026;-58
2021/01/12 08:32:18;;;;;;;39.25;20.35;;;;;;;;;;5127809;27;20024;-58
2021/01/12 08:34:50;;;;;;;34.00;18.77;;;;;;;;;;5128178;27;20030;-58
2021/01/12 08:37:16;;;;;;;35.35;18.23;;;;;;;;;;5127422;27;20059;-56
2021/01/12 08:39:43;;;;;;;35.10;18.17;;;;;;;;;;5126387;27;20076;-57
2021/01/12 08:42:11;;;;;;;32.35;17.58;;;;;;;;;;5126448;27;20110;-57
2021/01/12 08:44:40;;;;;;;36.92;18.02;;;;;;;;;;5126429;27;20023;-57
2021/01/12 08:47:07;;;;;;;38.55;19.13;;;;;;;;;;5125851;27;20028;-58
2021/01/12 08:49:36;;;;;;;37.05;19.33;;;;;;;;;;5124670;27;20111;-58
2021/01/12 08:52:05;;;;;;;37.67;19.45;;;;;;;;;;5125808;27;20106;-58
2021/01/12 08:54:31;;;;;;;37.72;18.25;;;;;;;;;;5125648;27;20027;-56
2021/01/12 08:57:02;;;;;;;38.25;19.08;;;;;;;;;;5125716;27;20023;-58
2021/01/12 08:59:30;;;;;;;36.42;19.05;;;;;;;;;;5126009;27;20024;-58
2021/01/12 09:01:57;;;;;;;38.38;19.23;;;;;;;;;;5125638;27;20027;-57
2021/01/12 09:04:24;;;;;;;34.22;17.25;;;;;;;;;;5125848;27;20054;-57
2021/01/12 09:07:11;;;;;;;38.00;19.25;;;;;;;;;;5125758;27;20030;-56
2021/01/12 09:09:37;;;;;;;40.03;19.85;;;;;;;;;;5124775;27;20025;-57
2021/01/12 09:12:03;;;;;;;38.28;19.85;;;;;;;;;;5125281;27;20025;-57
2021/01/12 09:14:30;;;;;;;43.50;21.52;;;;;;;;;;5125205;27;20035;-56
2021/01/12 09:16:58;;;;;;;36.70;19.27;;;;;;;;;;5125613;27;20308;-55
2021/01/12 09:19:24;;;;;;;44.33;20.83;;;;;;;;;;5125476;27;20088;-57
2021/01/12 09:21:50;;;;;;;35.58;18.52;;;;;;;;;;5125646;27;20062;-57
2021/01/12 09:24:20;;;;;;;39.25;19.42;;;;;;;;;;5125239;27;20398;-56
2021/01/12 09:26:46;;;;;;;40.15;20.58;;;;;;;;;;5125326;27;20261;-57
2021/01/12 09:29:12;;;;;;;40.78;20.40;;;;;;;;;;5125111;27;20114;-57
2021/01/12 09:31:56;;;;;;;42.88;21.38;;;;;;;;;;5125774;27;20019;-57
2021/01/12 09:34:24;;;;;;;45.28;22.98;;;;;;;;;;5125230;27;20038;-57
2021/01/12 09:36:50;;;;;;;45.72;22.58;;;;;;;;;;5125394;27;20098;-56
2021/01/12 09:39:16;;;;;;;42.70;21.05;;;;;;;;;;5124965;27;20019;-57
2021/01/12 09:41:42;;;;;;;46.10;22.60;;;;;;;;;;5124950;27;20110;-57
2021/01/12 09:44:09;;;;;;;46.72;22.05;;;;;;;;;;5123247;27;20097;-56
2021/01/12 09:46:36;;;;;;;42.33;21.02;;;;;;;;;;5125697;28;20115;-54
2021/01/12 09:49:02;;;;;;;46.00;21.20;;;;;;;;;;5110546;28;20023;-54
2021/01/12 09:51:28;;;;;;;43.35;20.77;;;;;;;;;;5104777;28;20050;-53
2021/01/12 09:53:54;;;;;;;38.78;20.15;;;;;;;;;;5103767;28;20057;-54
2021/01/12 09:56:21;;;;;;;44.53;21.08;;;;;;;;;;5106516;28;20086;-54
2021/01/12 09:58:52;;;;;;;39.78;20.58;;;;;;;;;;5107904;28;20456;-54
2021/01/12 10:01:18;;;;;;;46.97;21.10;;;;;;;;;;5108436;28;20028;-54
2021/01/12 10:03:44;;;;;;;43.45;20.88;;;;;;;;;;5108692;28;20038;-54
2021/01/12 10:06:17;;;;;;;44.88;21.35;;;;;;;;;;5108488;28;20032;-54
2021/01/12 10:08:43;;;;;;;38.55;20.70;;;;;;;;;;5108554;28;20098;-54
2021/01/12 10:11:09;;;;;;;41.03;20.35;;;;;;;;;;5109276;28;20332;-56
2021/01/12 10:13:35;;;;;;;38.90;20.25;;;;;;;;;;5108730;28;20076;-57
2021/01/12 10:16:01;;;;;;;42.85;20.83;;;;;;;;;;5108564;27;20024;-57
2021/01/12 10:18:28;;;;;;;42.25;20.95;;;;;;;;;;5108231;28;20042;-57
2021/01/12 10:20:54;;;;;;;40.45;20.65;;;;;;;;;;5107507;28;20032;-57
2021/01/12 10:23:21;;;;;;;41.90;20.88;;;;;;;;;;5108151;28;20488;-56
2021/01/12 10:25:47;;;;;;;43.90;21.73;;;;;;;;;;5107979;28;20103;-56
2021/01/12 10:28:14;;;;;;;40.00;20.13;;;;;;;;;;5107992;28;20016;-57
2021/01/12 10:30:41;;;;;;;39.88;21.90;;;;;;;;;;5109019;28;20502;-56
2021/01/12 10:33:08;;;;;;;46.97;23.50;;;;;;;;;;5108465;28;20084;-52
2021/01/12 10:35:34;;;;;;;47.20;23.48;;;;;;;;;;5108222;28;20251;-54
2021/01/12 10:38:00;;;;;;;48.78;24.45;;;;;;;;;;5108024;28;20035;-54
2021/01/12 10:40:26;;;;;;;45.03;22.42;;;;;;;;;;5107767;28;20031;-54
2021/01/12 10:42:52;;;;;;;50.10;25.38;;;;;;;;;;5107793;28;20028;-53
2021/01/12 10:45:18;;;;;;;47.50;23.42;;;;;;;;;;5107747;28;20080;-56
2021/01/12 10:47:44;;;;;;;46.88;23.75;;;;;;;;;;5107845;28;20353;-56
2021/01/12 10:50:18;;;;;;;46.80;23.83;;;;;;;;;;5107675;28;20516;-55
2021/01/12 10:52:44;;;;;;;49.55;24.50;;;;;;;;;;5107277;28;20404;-57
2021/01/12 10:55:10;;;;;;;42.38;22.38;;;;;;;;;;5107872;28;20034;-54
2021/01/12 10:57:36;;;;;;;47.00;23.48;;;;;;;;;;5107918;28;20110;-53
2021/01/12 11:00:06;;;;;;;45.13;23.27;;;;;;;;;;5106219;28;20319;-54
2021/01/12 11:02:33;;;;;;;45.10;22.83;;;;;;;;;;5106582;28;20020;-55
2021/01/12 11:04:59;;;;;;;42.17;21.67;;;;;;;;;;5107724;28;20028;-57
2021/01/12 11:07:25;;;;;;;45.85;21.90;;;;;;;;;;5107086;28;20050;-56
2021/01/12 11:09:51;;;;;;;43.30;21.92;;;;;;;;;;5107415;28;20096;-58
2021/01/12 11:12:18;;;;;;;41.50;20.38;;;;;;;;;;5106933;28;20098;-58
2021/01/12 11:14:45;;;;;;;38.65;20.63;;;;;;;;;;5107475;28;20086;-55
2021/01/12 11:17:14;;;;;;;33.90;18.45;;;;;;;;;;5107082;28;20020;-55
2021/01/12 11:19:41;;;;;;;40.38;19.80;;;;;;;;;;5107534;28;20043;-58
2021/01/12 11:22:07;;;;;;;37.67;19.13;;;;;;;;;;5107695;28;20019;-54
2021/01/12 11:24:36;;;;;;;38.92;19.70;;;;;;;;;;5107062;28;20463;-57
2021/01/12 11:27:04;;;;;;;36.70;18.90;;;;;;;;;;5106699;28;20019;-57
2021/01/12 11:29:32;;;;;;;37.30;19.17;;;;;;;;;;5107289;28;20023;-54
2021/01/12 11:31:59;;;;;;;39.50;20.27;;;;;;;;;;5106816;28;20098;-55
2021/01/12 11:34:25;;;;;;;35.92;18.23;;;;;;;;;;5107114;28;20032;-55
2021/01/12 11:36:52;;;;;;;34.78;18.35;;;;;;;;;;5106883;28;20699;-54
2021/01/12 11:39:20;;;;;;;43.47;20.80;;;;;;;;;;5106651;28;20035;-55
2021/01/12 11:41:54;;;;;;;37.70;19.70;;;;;;;;;;5117579;27;20115;-55
2021/01/12 11:44:21;;;;;;;35.45;18.05;;;;;;;;;;5128204;27;20473;-55
2021/01/12 11:46:48;;;;;;;35.63;19.45;;;;;;;;;;5127060;27;20051;-55
2021/01/12 11:49:14;;;;;;;37.53;19.50;;;;;;;;;;5126323;27;20031;-56
2021/01/12 11:51:41;;;;;;;38.13;18.95;;;;;;;;;;5119469;27;20111;-52
2021/01/12 11:54:07;;;;;;;37.55;18.58;;;;;;;;;;5119930;27;20031;-55
2021/01/12 11:56:35;;;;;;;36.85;19.92;;;;;;;;;;5123059;27;20053;-54
2021/01/12 11:59:02;;;;;;;36.28;18.92;;;;;;;;;;5124881;27;20030;-58
2021/01/12 12:01:28;;;;;;;33.60;19.02;;;;;;;;;;5126533;27;20215;-55
2021/01/12 12:03:55;;;;;;;36.88;18.38;;;;;;;;;;5124436;27;20019;-56
2021/01/12 12:06:23;;;;;;;36.05;19.13;;;;;;;;;;5121480;27;20070;-56
2021/01/12 12:08:49;;;;;;;38.78;19.05;;;;;;;;;;5120274;27;20404;-56
2021/01/12 12:11:16;;;;;;;39.55;19.88;;;;;;;;;;5125066;27;20090;-56
2021/01/12 12:13:42;;;;;;;38.05;19.58;;;;;;;;;;5124829;27;20887;-55
2021/01/12 12:16:14;;;;;;;35.20;18.45;;;;;;;;;;5125750;27;20092;-55
2021/01/12 12:18:41;;;;;;;35.95;18.20;;;;;;;;;;5124641;27;20023;-57
2021/01/12 12:21:12;;;;;;;35.35;18.52;;;;;;;;;;5123637;27;20030;-55
2021/01/12 12:23:38;;;;;;;37.03;19.33;;;;;;;;;;5121787;27;20034;-56
2021/01/12 12:26:08;;;;;;;36.03;18.80;;;;;;;;;;5111746;27;20481;-56
2021/01/12 12:28:34;;;;;;;39.00;19.25;;;;;;;;;;5123503;27;20523;-56
2021/01/12 12:31:00;;;;;;;38.58;19.25;;;;;;;;;;5123672;27;20330;-56
2021/01/12 12:33:26;;;;;;;39.20;19.63;;;;;;;;;;5125517;27;20016;-56
2021/01/12 12:35:52;;;;;;;45.17;19.88;;;;;;;;;;5124447;27;20035;-56
2021/01/12 12:38:18;;;;;;;47.35;22.75;;;;;;;;;;5124705;27;20393;-56
2021/01/12 12:40:45;;;;;;;44.90;22.33;;;;;;;;;;5125379;27;20019;-56
2021/01/12 12:43:12;;;;;;;44.53;21.85;;;;;;;;;;5125333;27;20027;-56
2021/01/12 12:45:38;;;;;;;43.50;20.65;;;;;;;;;;5123101;27;20488;-55
2021/01/12 12:48:06;;;;;;;39.55;20.85;;;;;;;;;;5123168;27;20050;-55
2021/01/12 12:50:32;;;;;;;37.95;18.92;;;;;;;;;;5123239;27;20488;-52
2021/01/12 12:52:58;;;;;;;39.80;19.77;;;;;;;;;;5124900;27;20043;-52
2021/01/12 12:55:24;;;;;;;36.28;19.05;;;;;;;;;;5124976;27;20035;-52
2021/01/12 12:57:51;;;;;;;35.00;18.15;;;;;;;;;;5123620;27;20035;-53
2021/01/12 13:00:17;;;;;;;39.22;19.35;;;;;;;;;;5125104;27;20096;-53
2021/01/12 13:02:44;;;;;;;36.05;18.50;;;;;;;;;;5125133;27;20038;-53
2021/01/12 13:05:10;;;;;;;32.88;17.63;;;;;;;;;;5123941;27;20046;-51
2021/01/12 13:07:37;;;;;;;33.08;17.48;;;;;;;;;;5124092;27;20031;-53
2021/01/12 13:10:06;;;;;;;35.75;17.92;;;;;;;;;;5122909;27;20026;-53
2021/01/12 13:12:34;;;;;;;34.28;17.73;;;;;;;;;;5113845;27;20016;-52
2021/01/12 13:15:00;;;;;;;35.58;18.55;;;;;;;;;;5109304;27;20050;-51
2021/01/12 13:17:27;;;;;;;37.55;18.77;;;;;;;;;;5121419;27;20031;-53
2021/01/12 13:20:07;;;;;;;33.65;16.75;;;;;;;;;;5125167;27;20035;-52
2021/01/12 13:22:34;;;;;;;34.60;17.88;;;;;;;;;;5124831;27;20019;-51
2021/01/12 13:25:00;;;;;;;34.97;18.25;;;;;;;;;;5123838;27;20039;-52
2021/01/12 13:27:27;;;;;;;33.55;18.05;;;;;;;;;;5124415;27;20103;-54
2021/01/12 13:29:54;;;;;;;34.70;17.00;;;;;;;;;;5123836;27;20484;-53
2021/01/12 13:32:21;;;;;;;32.72;16.95;;;;;;;;;;5124813;27;20058;-54
2021/01/12 13:34:49;;;;;;;32.75;16.55;;;;;;;;;;5123494;27;20031;-52
2021/01/12 13:37:15;;;;;;;30.08;16.17;;;;;;;;;;5124366;27;20027;-53
2021/01/12 13:39:42;;;;;;;30.77;15.65;;;;;;;;;;5123839;27;20031;-53
2021/01/12 13:42:08;;;;;;;32.00;15.90;;;;;;;;;;5124012;27;20103;-54
2021/01/12 13:44:36;;;;;;;28.75;15.43;;;;;;;;;;5123647;27;20023;-53
2021/01/12 13:47:02;;;;;;;27.60;14.48;;;;;;;;;;5124491;27;20026;-54
2021/01/12 13:49:28;;;;;;;28.80;14.55;;;;;;;;;;5124378;28;20378;-53
2021/01/12 13:51:54;;;;;;;26.75;15.00;;;;;;;;;;5124517;28;20015;-54
2021/01/12 13:54:22;;;;;;;26.67;14.88;;;;;;;;;;5123486;28;20046;-53
2021/01/12 13:56:52;;;;;;;28.42;14.93;;;;;;;;;;5123626;27;20027;-52
2021/01/12 13:59:19;;;;;;;27.77;13.95;;;;;;;;;;5124739;28;20144;-52
2021/01/12 14:01:45;;;;;;;27.95;14.90;;;;;;;;;;5124809;28;20023;-53
2021/01/12 14:04:11;;;;;;;28.73;14.88;;;;;;;;;;5123467;28;20030;-53
2021/01/12 14:06:38;;;;;;;29.48;14.43;;;;;;;;;;5124692;28;20348;-54
2021/01/12 14:09:05;;;;;;;29.73;14.95;;;;;;;;;;5124600;28;20452;-54
2021/01/12 14:11:31;;;;;;;25.98;14.32;;;;;;;;;;5124191;28;20023;-53
2021/01/12 14:13:57;;;;;;;24.00;13.45;;;;;;;;;;5123808;27;20404;-53
2021/01/12 14:16:25;;;;;;;27.63;14.48;;;;;;;;;;5124234;28;20019;-54
2021/01/12 14:18:51;;;;;;;25.63;13.40;;;;;;;;;;5123938;27;20039;-55